sensor_id;sensor_type;location;lat;lon;timestamp;P1;durP1;ratioP1;P2;durP2;ratioP2
45252;SDS011;63171;50.520;30.486;2022-12-18T00:00:00;23.80;;;17.23;;
45252;SDS011;63171;50.520;30.486;2022-12-18T00:00:51;22.92;;;16.98;;
45252;SDS011;63171;50.520;30.486;2022-12-18T00:01:41;21.75;;;16.40;;
45252;SDS011;63171;50.520;30.486;2022-12-18T00:02:32;22.55;;;17.48;;
45252;SDS011;63171;50.520;30.486;2022-12-18T00:03:21;23.63;;;17.05;;
45252;SDS011;63171;50.520;30.486;2022-12-18T00:04:14;21.05;;;18.17;;
45252;SDS011;63171;50.520;30.486;2022-12-18T00:05:09;21.08;;;15.85;;
45252;SDS011;63171;50.520;30.486;2022-12-18T00:05:59;20.92;;;16.67;;
45252;SDS011;63171;50.520;30.486;2022-12-18T00:06:49;22.50;;;16.65;;
45252;SDS011;63171;50.520;30.486;2022-12-18T00:07:40;20.35;;;16.00;;
45252;SDS011;63171;50.520;30.486;2022-12-18T00:08:30;23.40;;;17.95;;
45252;SDS011;63171;50.520;30.486;2022-12-18T00:09:22;23.42;;;15.48;;
45252;SDS011;63171;50.520;30.486;2022-12-18T00:10:11;21.13;;;16.02;;
45252;SDS011;63171;50.520;30.486;2022-12-18T00:11:03;18.52;;;14.77;;
45252;SDS011;63171;50.520;30.486;2022-12-18T00:11:53;18.90;;;14.38;;
45252;SDS011;63171;50.520;30.486;2022-12-18T00:12:45;18.92;;;15.02;;
45252;SDS011;63171;50.520;30.486;2022-12-18T00:13:34;20.60;;;14.88;;
45252;SDS011;63171;50.520;30.486;2022-12-18T00:14:25;20.70;;;16.70;;
45252;SDS011;63171;50.520;30.486;2022-12-18T00:15:15;19.70;;;16.02;;
45252;SDS011;63171;50.520;30.486;2022-12-18T00:16:07;20.92;;;16.02;;
45252;SDS011;63171;50.520;30.486;2022-12-18T00:16:59;19.38;;;16.33;;
45252;SDS011;63171;50.520;30.486;2022-12-18T00:17:50;19.98;;;16.27;;
45252;SDS011;63171;50.520;30.486;2022-12-18T00:18:40;18.33;;;14.70;;
45252;SDS011;63171;50.520;30.486;2022-12-18T00:19:31;21.52;;;16.58;;
45252;SDS011;63171;50.520;30.486;2022-12-18T00:21:14;22.58;;;15.68;;
45252;SDS011;63171;50.520;30.486;2022-12-18T00:22:56;18.05;;;13.98;;
45252;SDS011;63171;50.520;30.486;2022-12-18T00:23:46;18.23;;;14.80;;
45252;SDS011;63171;50.520;30.486;2022-12-18T00:24:36;22.65;;;16.20;;
45252;SDS011;63171;50.520;30.486;2022-12-18T00:25:27;21.58;;;16.30;;
45252;SDS011;63171;50.520;30.486;2022-12-18T00:26:17;18.00;;;14.10;;
45252;SDS011;63171;50.520;30.486;2022-12-18T00:27:09;22.77;;;18.42;;
45252;SDS011;63171;50.520;30.486;2022-12-18T00:27:59;24.30;;;16.52;;
45252;SDS011;63171;50.520;30.486;2022-12-18T00:28:49;23.38;;;17.35;;
45252;SDS011;63171;50.520;30.486;2022-12-18T00:29:41;22.67;;;17.77;;
45252;SDS011;63171;50.520;30.486;2022-12-18T00:30:30;23.42;;;16.98;;
45252;SDS011;63171;50.520;30.486;2022-12-18T00:31:22;21.38;;;16.05;;
45252;SDS011;63171;50.520;30.486;2022-12-18T00:32:15;26.42;;;18.80;;
45252;SDS011;63171;50.520;30.486;2022-12-18T00:33:05;22.88;;;18.08;;
45252;SDS011;63171;50.520;30.486;2022-12-18T00:33:56;24.80;;;18.77;;
45252;SDS011;63171;50.520;30.486;2022-12-18T00:34:46;25.45;;;19.15;;
45252;SDS011;63171;50.520;30.486;2022-12-18T00:35:39;22.08;;;17.60;;
45252;SDS011;63171;50.520;30.486;2022-12-18T00:36:30;23.17;;;18.08;;
45252;SDS011;63171;50.520;30.486;2022-12-18T00:37:22;25.15;;;18.80;;
45252;SDS011;63171;50.520;30.486;2022-12-18T00:38:13;23.67;;;18.10;;
45252;SDS011;63171;50.520;30.486;2022-12-18T00:39:04;21.08;;;17.75;;
45252;SDS011;63171;50.520;30.486;2022-12-18T00:41:35;22.58;;;16.33;;
45252;SDS011;63171;50.520;30.486;2022-12-18T00:42:43;24.25;;;17.33;;
45252;SDS011;63171;50.520;30.486;2022-12-18T00:43:46;24.48;;;18.15;;
45252;SDS011;63171;50.520;30.486;2022-12-18T00:44:36;23.40;;;17.02;;
45252;SDS011;63171;50.520;30.486;2022-12-18T00:45:26;23.42;;;17.45;;
45252;SDS011;63171;50.520;30.486;2022-12-18T00:46:19;24.63;;;19.17;;
45252;SDS011;63171;50.520;30.486;2022-12-18T00:47:11;22.95;;;18.35;;
45252;SDS011;63171;50.520;30.486;2022-12-18T00:48:01;22.75;;;18.58;;
45252;SDS011;63171;50.520;30.486;2022-12-18T00:48:51;22.33;;;18.10;;
45252;SDS011;63171;50.520;30.486;2022-12-18T00:49:41;23.77;;;17.45;;
45252;SDS011;63171;50.520;30.486;2022-12-18T00:50:32;23.38;;;18.20;;
45252;SDS011;63171;50.520;30.486;2022-12-18T00:51:24;23.45;;;17.40;;
45252;SDS011;63171;50.520;30.486;2022-12-18T00:52:14;23.52;;;17.15;;
45252;SDS011;63171;50.520;30.486;2022-12-18T00:53:05;21.38;;;17.02;;
45252;SDS011;63171;50.520;30.486;2022-12-18T00:53:55;23.30;;;17.80;;
45252;SDS011;63171;50.520;30.486;2022-12-18T00:54:46;23.90;;;18.67;;
45252;SDS011;63171;50.520;30.486;2022-12-18T00:55:36;24.02;;;19.35;;
45252;SDS011;63171;50.520;30.486;2022-12-18T00:56:28;23.45;;;18.10;;
45252;SDS011;63171;50.520;30.486;2022-12-18T00:57:17;25.15;;;17.52;;
45252;SDS011;63171;50.520;30.486;2022-12-18T00:58:09;18.80;;;15.88;;
45252;SDS011;63171;50.520;30.486;2022-12-18T00:58:59;24.35;;;17.45;;
45252;SDS011;63171;50.520;30.486;2022-12-18T00:59:50;23.88;;;17.58;;
45252;SDS011;63171;50.520;30.486;2022-12-18T01:02:27;22.02;;;16.27;;
45252;SDS011;63171;50.520;30.486;2022-12-18T01:03:18;21.15;;;15.80;;
45252;SDS011;63171;50.520;30.486;2022-12-18T01:04:08;22.23;;;16.20;;
45252;SDS011;63171;50.520;30.486;2022-12-18T01:05:00;19.58;;;16.27;;
45252;SDS011;63171;50.520;30.486;2022-12-18T01:05:50;19.35;;;15.70;;
45252;SDS011;63171;50.520;30.486;2022-12-18T01:06:43;22.23;;;16.08;;
45252;SDS011;63171;50.520;30.486;2022-12-18T01:07:33;21.85;;;15.80;;
45252;SDS011;63171;50.520;30.486;2022-12-18T01:08:25;21.73;;;17.13;;
45252;SDS011;63171;50.520;30.486;2022-12-18T01:09:16;22.15;;;15.98;;
45252;SDS011;63171;50.520;30.486;2022-12-18T01:10:06;19.17;;;15.27;;
45252;SDS011;63171;50.520;30.486;2022-12-18T01:10:58;21.92;;;16.60;;
45252;SDS011;63171;50.520;30.486;2022-12-18T01:13:28;21.63;;;14.63;;
45252;SDS011;63171;50.520;30.486;2022-12-18T01:14:18;21.48;;;15.35;;
45252;SDS011;63171;50.520;30.486;2022-12-18T01:15:09;23.50;;;16.27;;
45252;SDS011;63171;50.520;30.486;2022-12-18T01:16:00;22.77;;;16.35;;
45252;SDS011;63171;50.520;30.486;2022-12-18T01:16:51;24.85;;;18.10;;
45252;SDS011;63171;50.520;30.486;2022-12-18T01:17:41;20.05;;;16.13;;
45252;SDS011;63171;50.520;30.486;2022-12-18T01:18:32;27.77;;;16.17;;
45252;SDS011;63171;50.520;30.486;2022-12-18T01:19:22;22.10;;;16.98;;
45252;SDS011;63171;50.520;30.486;2022-12-18T01:20:14;20.48;;;16.17;;
45252;SDS011;63171;50.520;30.486;2022-12-18T01:21:05;22.83;;;16.33;;
45252;SDS011;63171;50.520;30.486;2022-12-18T01:22:01;22.30;;;17.88;;
45252;SDS011;63171;50.520;30.486;2022-12-18T01:22:50;24.38;;;18.98;;
45252;SDS011;63171;50.520;30.486;2022-12-18T01:23:41;25.38;;;18.20;;
45252;SDS011;63171;50.520;30.486;2022-12-18T01:24:34;22.60;;;16.85;;
45252;SDS011;63171;50.520;30.486;2022-12-18T01:25:25;23.25;;;18.63;;
45252;SDS011;63171;50.520;30.486;2022-12-18T01:26:15;23.45;;;17.77;;
45252;SDS011;63171;50.520;30.486;2022-12-18T01:27:06;27.30;;;20.05;;
45252;SDS011;63171;50.520;30.486;2022-12-18T01:27:56;27.27;;;18.50;;
45252;SDS011;63171;50.520;30.486;2022-12-18T01:28:47;25.30;;;18.65;;
45252;SDS011;63171;50.520;30.486;2022-12-18T01:29:38;28.45;;;21.23;;
45252;SDS011;63171;50.520;30.486;2022-12-18T01:30:29;27.13;;;18.80;;
45252;SDS011;63171;50.520;30.486;2022-12-18T01:31:19;26.02;;;19.98;;
45252;SDS011;63171;50.520;30.486;2022-12-18T01:32:11;25.05;;;18.75;;
45252;SDS011;63171;50.520;30.486;2022-12-18T01:33:01;25.38;;;20.42;;
45252;SDS011;63171;50.520;30.486;2022-12-18T01:33:54;25.90;;;19.08;;
45252;SDS011;63171;50.520;30.486;2022-12-18T01:35:39;27.30;;;20.38;;
45252;SDS011;63171;50.520;30.486;2022-12-18T01:36:31;29.83;;;20.58;;
45252;SDS011;63171;50.520;30.486;2022-12-18T01:37:24;27.80;;;20.67;;
45252;SDS011;63171;50.520;30.486;2022-12-18T01:38:14;27.90;;;20.05;;
45252;SDS011;63171;50.520;30.486;2022-12-18T01:39:06;26.05;;;19.48;;
45252;SDS011;63171;50.520;30.486;2022-12-18T01:39:59;25.08;;;18.35;;
45252;SDS011;63171;50.520;30.486;2022-12-18T01:40:50;26.45;;;19.17;;
45252;SDS011;63171;50.520;30.486;2022-12-18T01:41:46;26.77;;;19.42;;
45252;SDS011;63171;50.520;30.486;2022-12-18T01:42:55;28.15;;;20.02;;
45252;SDS011;63171;50.520;30.486;2022-12-18T01:43:47;26.17;;;19.50;;
45252;SDS011;63171;50.520;30.486;2022-12-18T01:44:47;25.73;;;17.30;;
45252;SDS011;63171;50.520;30.486;2022-12-18T01:45:45;26.92;;;19.05;;
45252;SDS011;63171;50.520;30.486;2022-12-18T01:46:34;26.80;;;19.52;;
45252;SDS011;63171;50.520;30.486;2022-12-18T01:47:26;25.85;;;19.70;;
45252;SDS011;63171;50.520;30.486;2022-12-18T01:48:19;24.75;;;18.00;;
45252;SDS011;63171;50.520;30.486;2022-12-18T01:49:10;24.90;;;18.85;;
45252;SDS011;63171;50.520;30.486;2022-12-18T01:50:00;26.05;;;19.88;;
45252;SDS011;63171;50.520;30.486;2022-12-18T01:50:54;24.80;;;18.98;;
45252;SDS011;63171;50.520;30.486;2022-12-18T01:51:44;25.55;;;18.45;;
45252;SDS011;63171;50.520;30.486;2022-12-18T01:52:36;28.20;;;20.33;;
45252;SDS011;63171;50.520;30.486;2022-12-18T01:53:30;28.58;;;20.35;;
45252;SDS011;63171;50.520;30.486;2022-12-18T01:54:21;27.95;;;20.38;;
45252;SDS011;63171;50.520;30.486;2022-12-18T01:55:13;25.58;;;19.27;;
45252;SDS011;63171;50.520;30.486;2022-12-18T01:56:06;25.70;;;18.48;;
45252;SDS011;63171;50.520;30.486;2022-12-18T01:56:59;21.10;;;16.88;;
45252;SDS011;63171;50.520;30.486;2022-12-18T01:57:50;27.73;;;19.20;;
45252;SDS011;63171;50.520;30.486;2022-12-18T01:58:46;23.80;;;17.98;;
45252;SDS011;63171;50.520;30.486;2022-12-18T01:59:42;29.98;;;19.67;;
45252;SDS011;63171;50.520;30.486;2022-12-18T02:00:35;26.08;;;20.02;;
45252;SDS011;63171;50.520;30.486;2022-12-18T02:01:25;26.48;;;19.77;;
45252;SDS011;63171;50.520;30.486;2022-12-18T02:02:16;27.63;;;18.52;;
45252;SDS011;63171;50.520;30.486;2022-12-18T02:03:06;26.17;;;19.85;;
45252;SDS011;63171;50.520;30.486;2022-12-18T02:04:10;28.80;;;19.83;;
45252;SDS011;63171;50.520;30.486;2022-12-18T02:05:10;27.40;;;18.40;;
45252;SDS011;63171;50.520;30.486;2022-12-18T02:06:06;25.67;;;19.10;;
45252;SDS011;63171;50.520;30.486;2022-12-18T02:07:03;26.05;;;18.75;;
45252;SDS011;63171;50.520;30.486;2022-12-18T02:08:03;27.17;;;18.98;;
45252;SDS011;63171;50.520;30.486;2022-12-18T02:09:02;23.08;;;18.45;;
45252;SDS011;63171;50.520;30.486;2022-12-18T02:10:00;26.67;;;17.50;;
45252;SDS011;63171;50.520;30.486;2022-12-18T02:10:57;25.83;;;18.75;;
45252;SDS011;63171;50.520;30.486;2022-12-18T02:11:56;26.95;;;18.27;;
45252;SDS011;63171;50.520;30.486;2022-12-18T02:12:56;26.50;;;18.15;;
45252;SDS011;63171;50.520;30.486;2022-12-18T02:13:56;29.13;;;19.30;;
45252;SDS011;63171;50.520;30.486;2022-12-18T02:14:54;26.63;;;16.95;;
45252;SDS011;63171;50.520;30.486;2022-12-18T02:15:51;29.33;;;20.75;;
45252;SDS011;63171;50.520;30.486;2022-12-18T02:16:49;26.05;;;18.92;;
45252;SDS011;63171;50.520;30.486;2022-12-18T02:17:46;27.27;;;18.85;;
45252;SDS011;63171;50.520;30.486;2022-12-18T02:18:40;26.85;;;19.02;;
45252;SDS011;63171;50.520;30.486;2022-12-18T02:19:40;25.55;;;18.48;;
45252;SDS011;63171;50.520;30.486;2022-12-18T02:20:43;23.80;;;18.45;;
45252;SDS011;63171;50.520;30.486;2022-12-18T02:21:40;22.40;;;17.92;;
45252;SDS011;63171;50.520;30.486;2022-12-18T02:22:41;27.30;;;18.17;;
45252;SDS011;63171;50.520;30.486;2022-12-18T02:23:47;26.92;;;18.50;;
45252;SDS011;63171;50.520;30.486;2022-12-18T02:24:46;23.77;;;17.75;;
45252;SDS011;63171;50.520;30.486;2022-12-18T02:25:54;27.52;;;18.08;;
45252;SDS011;63171;50.520;30.486;2022-12-18T02:26:55;27.45;;;18.40;;
45252;SDS011;63171;50.520;30.486;2022-12-18T02:27:51;28.13;;;19.45;;
45252;SDS011;63171;50.520;30.486;2022-12-18T02:28:45;28.67;;;19.58;;
45252;SDS011;63171;50.520;30.486;2022-12-18T02:29:39;26.15;;;18.42;;
45252;SDS011;63171;50.520;30.486;2022-12-18T02:30:34;29.98;;;19.08;;
45252;SDS011;63171;50.520;30.486;2022-12-18T02:31:29;23.63;;;16.67;;
45252;SDS011;63171;50.520;30.486;2022-12-18T02:32:23;24.33;;;17.30;;
45252;SDS011;63171;50.520;30.486;2022-12-18T02:33:17;21.90;;;16.58;;
45252;SDS011;63171;50.520;30.486;2022-12-18T02:34:10;23.98;;;16.92;;
45252;SDS011;63171;50.520;30.486;2022-12-18T02:35:04;22.42;;;16.83;;
45252;SDS011;63171;50.520;30.486;2022-12-18T02:35:56;26.17;;;17.15;;
45252;SDS011;63171;50.520;30.486;2022-12-18T02:36:50;22.63;;;17.27;;
45252;SDS011;63171;50.520;30.486;2022-12-18T02:37:43;23.02;;;17.10;;
45252;SDS011;63171;50.520;30.486;2022-12-18T02:38:36;24.88;;;16.95;;
45252;SDS011;63171;50.520;30.486;2022-12-18T02:39:34;23.58;;;18.08;;
45252;SDS011;63171;50.520;30.486;2022-12-18T02:40:27;25.65;;;17.92;;
45252;SDS011;63171;50.520;30.486;2022-12-18T02:41:19;21.75;;;16.33;;
45252;SDS011;63171;50.520;30.486;2022-12-18T02:42:15;21.88;;;16.40;;
45252;SDS011;63171;50.520;30.486;2022-12-18T02:43:07;25.65;;;17.20;;
45252;SDS011;63171;50.520;30.486;2022-12-18T02:44:00;24.45;;;19.30;;
45252;SDS011;63171;50.520;30.486;2022-12-18T02:44:55;25.83;;;18.33;;
45252;SDS011;63171;50.520;30.486;2022-12-18T02:45:49;24.15;;;17.85;;
45252;SDS011;63171;50.520;30.486;2022-12-18T02:46:42;19.95;;;16.23;;
45252;SDS011;63171;50.520;30.486;2022-12-18T02:47:39;23.98;;;16.88;;
45252;SDS011;63171;50.520;30.486;2022-12-18T02:48:33;25.50;;;18.05;;
45252;SDS011;63171;50.520;30.486;2022-12-18T02:49:28;26.77;;;17.35;;
45252;SDS011;63171;50.520;30.486;2022-12-18T02:50:26;23.13;;;16.48;;
45252;SDS011;63171;50.520;30.486;2022-12-18T02:51:22;22.45;;;15.85;;
45252;SDS011;63171;50.520;30.486;2022-12-18T02:52:23;24.65;;;16.60;;
45252;SDS011;63171;50.520;30.486;2022-12-18T02:53:22;25.98;;;17.52;;
45252;SDS011;63171;50.520;30.486;2022-12-18T02:54:20;22.05;;;16.42;;
45252;SDS011;63171;50.520;30.486;2022-12-18T02:55:26;23.73;;;16.80;;
45252;SDS011;63171;50.520;30.486;2022-12-18T02:56:28;24.38;;;16.50;;
45252;SDS011;63171;50.520;30.486;2022-12-18T02:57:30;23.65;;;17.05;;
45252;SDS011;63171;50.520;30.486;2022-12-18T02:58:28;26.52;;;17.23;;
45252;SDS011;63171;50.520;30.486;2022-12-18T02:59:30;25.35;;;16.98;;
45252;SDS011;63171;50.520;30.486;2022-12-18T03:00:28;24.77;;;17.42;;
45252;SDS011;63171;50.520;30.486;2022-12-18T03:01:26;22.23;;;16.30;;
45252;SDS011;63171;50.520;30.486;2022-12-18T03:02:26;25.17;;;16.27;;
45252;SDS011;63171;50.520;30.486;2022-12-18T03:03:22;23.13;;;16.58;;
45252;SDS011;63171;50.520;30.486;2022-12-18T03:04:16;22.50;;;15.75;;
45252;SDS011;63171;50.520;30.486;2022-12-18T03:05:12;23.02;;;15.93;;
45252;SDS011;63171;50.520;30.486;2022-12-18T03:06:08;25.63;;;17.45;;
45252;SDS011;63171;50.520;30.486;2022-12-18T03:07:07;22.80;;;16.75;;
45252;SDS011;63171;50.520;30.486;2022-12-18T03:08:03;21.60;;;16.40;;
45252;SDS011;63171;50.520;30.486;2022-12-18T03:09:01;22.92;;;15.98;;
45252;SDS011;63171;50.520;30.486;2022-12-18T03:09:54;23.08;;;15.77;;
45252;SDS011;63171;50.520;30.486;2022-12-18T03:10:49;22.85;;;16.77;;
45252;SDS011;63171;50.520;30.486;2022-12-18T03:11:45;23.38;;;15.73;;
45252;SDS011;63171;50.520;30.486;2022-12-18T03:12:57;21.52;;;14.88;;
45252;SDS011;63171;50.520;30.486;2022-12-18T03:13:54;22.40;;;15.63;;
45252;SDS011;63171;50.520;30.486;2022-12-18T03:14:48;22.80;;;16.80;;
45252;SDS011;63171;50.520;30.486;2022-12-18T03:15:43;19.30;;;14.52;;
45252;SDS011;63171;50.520;30.486;2022-12-18T03:16:37;22.20;;;16.40;;
45252;SDS011;63171;50.520;30.486;2022-12-18T03:17:30;21.52;;;16.35;;
45252;SDS011;63171;50.520;30.486;2022-12-18T03:18:21;20.38;;;15.82;;
45252;SDS011;63171;50.520;30.486;2022-12-18T03:19:18;22.42;;;16.50;;
45252;SDS011;63171;50.520;30.486;2022-12-18T03:20:14;22.27;;;17.15;;
45252;SDS011;63171;50.520;30.486;2022-12-18T03:21:07;19.27;;;15.27;;
45252;SDS011;63171;50.520;30.486;2022-12-18T03:22:02;24.83;;;17.42;;
45252;SDS011;63171;50.520;30.486;2022-12-18T03:23:07;22.05;;;16.10;;
45252;SDS011;63171;50.520;30.486;2022-12-18T03:24:00;24.88;;;17.98;;
45252;SDS011;63171;50.520;30.486;2022-12-18T03:24:56;22.20;;;15.13;;
45252;SDS011;63171;50.520;30.486;2022-12-18T03:25:51;20.83;;;16.20;;
45252;SDS011;63171;50.520;30.486;2022-12-18T03:26:51;19.33;;;14.27;;
45252;SDS011;63171;50.520;30.486;2022-12-18T03:27:44;19.23;;;14.25;;
45252;SDS011;63171;50.520;30.486;2022-12-18T03:28:41;24.23;;;16.48;;
45252;SDS011;63171;50.520;30.486;2022-12-18T03:29:35;22.83;;;16.85;;
45252;SDS011;63171;50.520;30.486;2022-12-18T03:30:29;21.88;;;15.90;;
45252;SDS011;63171;50.520;30.486;2022-12-18T03:31:21;21.45;;;15.02;;
45252;SDS011;63171;50.520;30.486;2022-12-18T03:32:15;23.75;;;15.93;;
45252;SDS011;63171;50.520;30.486;2022-12-18T03:33:14;21.77;;;14.88;;
45252;SDS011;63171;50.520;30.486;2022-12-18T03:34:12;20.52;;;15.48;;
45252;SDS011;63171;50.520;30.486;2022-12-18T03:35:09;18.50;;;14.95;;
45252;SDS011;63171;50.520;30.486;2022-12-18T03:36:10;21.83;;;16.77;;
45252;SDS011;63171;50.520;30.486;2022-12-18T03:37:01;20.63;;;16.27;;
45252;SDS011;63171;50.520;30.486;2022-12-18T03:37:54;22.50;;;16.63;;
45252;SDS011;63171;50.520;30.486;2022-12-18T03:38:45;20.17;;;15.43;;
45252;SDS011;63171;50.520;30.486;2022-12-18T03:39:38;20.83;;;14.52;;
45252;SDS011;63171;50.520;30.486;2022-12-18T03:40:29;20.95;;;15.35;;
45252;SDS011;63171;50.520;30.486;2022-12-18T03:41:26;17.85;;;13.77;;
45252;SDS011;63171;50.520;30.486;2022-12-18T03:43:02;17.30;;;12.93;;
45252;SDS011;63171;50.520;30.486;2022-12-18T03:43:57;20.98;;;14.60;;
45252;SDS011;63171;50.520;30.486;2022-12-18T03:44:57;20.60;;;14.10;;
45252;SDS011;63171;50.520;30.486;2022-12-18T03:45:52;19.23;;;13.98;;
45252;SDS011;63171;50.520;30.486;2022-12-18T03:46:51;17.33;;;14.05;;
45252;SDS011;63171;50.520;30.486;2022-12-18T03:47:51;18.85;;;13.85;;
45252;SDS011;63171;50.520;30.486;2022-12-18T03:49:45;18.55;;;12.40;;
45252;SDS011;63171;50.520;30.486;2022-12-18T03:50:44;15.60;;;12.35;;
45252;SDS011;63171;50.520;30.486;2022-12-18T03:51:42;20.30;;;14.93;;
45252;SDS011;63171;50.520;30.486;2022-12-18T03:52:41;17.77;;;13.85;;
45252;SDS011;63171;50.520;30.486;2022-12-18T03:53:36;19.30;;;13.65;;
45252;SDS011;63171;50.520;30.486;2022-12-18T03:54:33;19.35;;;13.20;;
45252;SDS011;63171;50.520;30.486;2022-12-18T03:55:32;19.05;;;14.70;;
45252;SDS011;63171;50.520;30.486;2022-12-18T03:56:28;19.30;;;13.77;;
45252;SDS011;63171;50.520;30.486;2022-12-18T03:57:22;17.45;;;13.27;;
45252;SDS011;63171;50.520;30.486;2022-12-18T03:58:19;19.17;;;14.27;;
45252;SDS011;63171;50.520;30.486;2022-12-18T03:59:19;18.00;;;13.80;;
45252;SDS011;63171;50.520;30.486;2022-12-18T04:00:13;19.33;;;14.40;;
45252;SDS011;63171;50.520;30.486;2022-12-18T04:01:25;17.13;;;12.57;;
45252;SDS011;63171;50.520;30.486;2022-12-18T04:02:23;17.88;;;14.18;;
45252;SDS011;63171;50.520;30.486;2022-12-18T04:03:13;19.75;;;13.63;;
45252;SDS011;63171;50.520;30.486;2022-12-18T04:04:09;19.75;;;13.48;;
45252;SDS011;63171;50.520;30.486;2022-12-18T04:05:04;15.70;;;12.73;;
45252;SDS011;63171;50.520;30.486;2022-12-18T04:05:59;16.55;;;13.75;;
45252;SDS011;63171;50.520;30.486;2022-12-18T04:06:51;18.73;;;14.48;;
45252;SDS011;63171;50.520;30.486;2022-12-18T04:07:43;20.10;;;14.48;;
45252;SDS011;63171;50.520;30.486;2022-12-18T04:08:37;17.33;;;12.93;;
45252;SDS011;63171;50.520;30.486;2022-12-18T04:09:30;17.90;;;12.80;;
45252;SDS011;63171;50.520;30.486;2022-12-18T04:10:23;15.88;;;12.82;;
45252;SDS011;63171;50.520;30.486;2022-12-18T04:11:13;15.32;;;12.65;;
45252;SDS011;63171;50.520;30.486;2022-12-18T04:12:07;16.92;;;12.65;;
45252;SDS011;63171;50.520;30.486;2022-12-18T04:12:58;16.15;;;13.05;;
45252;SDS011;63171;50.520;30.486;2022-12-18T04:13:50;18.10;;;14.30;;
45252;SDS011;63171;50.520;30.486;2022-12-18T04:14:46;17.55;;;13.05;;
45252;SDS011;63171;50.520;30.486;2022-12-18T04:15:36;15.95;;;13.10;;
45252;SDS011;63171;50.520;30.486;2022-12-18T04:16:31;16.73;;;12.30;;
45252;SDS011;63171;50.520;30.486;2022-12-18T04:17:25;17.33;;;12.88;;
45252;SDS011;63171;50.520;30.486;2022-12-18T04:18:14;18.88;;;13.18;;
45252;SDS011;63171;50.520;30.486;2022-12-18T04:19:07;15.90;;;13.05;;
45252;SDS011;63171;50.520;30.486;2022-12-18T04:20:01;17.65;;;13.68;;
45252;SDS011;63171;50.520;30.486;2022-12-18T04:20:53;18.23;;;13.73;;
45252;SDS011;63171;50.520;30.486;2022-12-18T04:21:43;16.80;;;13.75;;
45252;SDS011;63171;50.520;30.486;2022-12-18T04:22:36;18.35;;;14.02;;
45252;SDS011;63171;50.520;30.486;2022-12-18T04:23:26;16.88;;;12.18;;
45252;SDS011;63171;50.520;30.486;2022-12-18T04:24:19;16.70;;;13.52;;
45252;SDS011;63171;50.520;30.486;2022-12-18T04:25:21;17.77;;;12.48;;
45252;SDS011;63171;50.520;30.486;2022-12-18T04:26:28;18.95;;;12.05;;
45252;SDS011;63171;50.520;30.486;2022-12-18T04:27:32;16.73;;;11.80;;
45252;SDS011;63171;50.520;30.486;2022-12-18T04:28:23;17.80;;;11.85;;
45252;SDS011;63171;50.520;30.486;2022-12-18T04:29:14;18.08;;;13.48;;
45252;SDS011;63171;50.520;30.486;2022-12-18T04:30:06;17.75;;;12.55;;
45252;SDS011;63171;50.520;30.486;2022-12-18T04:30:56;15.68;;;13.07;;
45252;SDS011;63171;50.520;30.486;2022-12-18T04:31:47;16.45;;;13.20;;
45252;SDS011;63171;50.520;30.486;2022-12-18T04:32:36;16.92;;;13.32;;
45252;SDS011;63171;50.520;30.486;2022-12-18T04:33:27;18.98;;;13.23;;
45252;SDS011;63171;50.520;30.486;2022-12-18T04:34:17;17.27;;;13.25;;
45252;SDS011;63171;50.520;30.486;2022-12-18T04:35:12;18.45;;;13.10;;
45252;SDS011;63171;50.520;30.486;2022-12-18T04:36:05;15.27;;;12.05;;
45252;SDS011;63171;50.520;30.486;2022-12-18T04:36:57;16.30;;;12.43;;
45252;SDS011;63171;50.520;30.486;2022-12-18T04:37:48;15.98;;;12.63;;
45252;SDS011;63171;50.520;30.486;2022-12-18T04:38:39;17.20;;;11.98;;
45252;SDS011;63171;50.520;30.486;2022-12-18T04:39:34;15.93;;;12.82;;
45252;SDS011;63171;50.520;30.486;2022-12-18T04:40:30;16.27;;;12.35;;
45252;SDS011;63171;50.520;30.486;2022-12-18T04:41:25;15.02;;;11.25;;
45252;SDS011;63171;50.520;30.486;2022-12-18T04:42:16;15.93;;;13.48;;
45252;SDS011;63171;50.520;30.486;2022-12-18T04:43:07;15.00;;;12.23;;
45252;SDS011;63171;50.520;30.486;2022-12-18T04:43:57;17.67;;;13.10;;
45252;SDS011;63171;50.520;30.486;2022-12-18T04:44:49;13.88;;;11.55;;
45252;SDS011;63171;50.520;30.486;2022-12-18T04:45:39;17.10;;;13.07;;
45252;SDS011;63171;50.520;30.486;2022-12-18T04:46:29;15.25;;;11.27;;
45252;SDS011;63171;50.520;30.486;2022-12-18T04:47:19;15.75;;;11.90;;
45252;SDS011;63171;50.520;30.486;2022-12-18T04:48:10;16.83;;;13.25;;
45252;SDS011;63171;50.520;30.486;2022-12-18T04:49:00;16.73;;;12.88;;
45252;SDS011;63171;50.520;30.486;2022-12-18T04:49:51;15.23;;;11.63;;
45252;SDS011;63171;50.520;30.486;2022-12-18T04:50:41;15.30;;;11.63;;
45252;SDS011;63171;50.520;30.486;2022-12-18T04:51:31;15.10;;;12.13;;
45252;SDS011;63171;50.520;30.486;2022-12-18T04:52:21;19.60;;;13.10;;
45252;SDS011;63171;50.520;30.486;2022-12-18T04:53:12;13.60;;;11.35;;
45252;SDS011;63171;50.520;30.486;2022-12-18T04:54:02;17.98;;;12.82;;
45252;SDS011;63171;50.520;30.486;2022-12-18T04:54:53;17.92;;;13.18;;
45252;SDS011;63171;50.520;30.486;2022-12-18T04:55:42;15.50;;;12.05;;
45252;SDS011;63171;50.520;30.486;2022-12-18T04:56:33;14.68;;;12.30;;
45252;SDS011;63171;50.520;30.486;2022-12-18T04:57:23;16.77;;;11.82;;
45252;SDS011;63171;50.520;30.486;2022-12-18T04:58:13;17.52;;;13.30;;
45252;SDS011;63171;50.520;30.486;2022-12-18T04:59:04;16.38;;;12.35;;
45252;SDS011;63171;50.520;30.486;2022-12-18T04:59:55;14.10;;;11.85;;
45252;SDS011;63171;50.520;30.486;2022-12-18T05:00:46;13.43;;;11.70;;
45252;SDS011;63171;50.520;30.486;2022-12-18T05:01:36;17.55;;;13.05;;
45252;SDS011;63171;50.520;30.486;2022-12-18T05:02:27;16.08;;;10.77;;
45252;SDS011;63171;50.520;30.486;2022-12-18T05:03:17;15.90;;;12.30;;
45252;SDS011;63171;50.520;30.486;2022-12-18T05:04:08;17.33;;;12.75;;
45252;SDS011;63171;50.520;30.486;2022-12-18T05:04:58;17.15;;;13.18;;
45252;SDS011;63171;50.520;30.486;2022-12-18T05:05:49;17.02;;;12.05;;
45252;SDS011;63171;50.520;30.486;2022-12-18T05:06:39;16.45;;;12.98;;
45252;SDS011;63171;50.520;30.486;2022-12-18T05:07:30;15.55;;;11.65;;
45252;SDS011;63171;50.520;30.486;2022-12-18T05:08:20;13.80;;;11.27;;
45252;SDS011;63171;50.520;30.486;2022-12-18T05:09:10;15.82;;;11.90;;
45252;SDS011;63171;50.520;30.486;2022-12-18T05:10:00;17.38;;;12.80;;
45252;SDS011;63171;50.520;30.486;2022-12-18T05:10:57;16.73;;;12.05;;
45252;SDS011;63171;50.520;30.486;2022-12-18T05:11:49;16.70;;;11.68;;
45252;SDS011;63171;50.520;30.486;2022-12-18T05:12:39;14.38;;;11.07;;
45252;SDS011;63171;50.520;30.486;2022-12-18T05:13:47;18.25;;;12.65;;
45252;SDS011;63171;50.520;30.486;2022-12-18T05:14:36;17.58;;;12.23;;
45252;SDS011;63171;50.520;30.486;2022-12-18T05:15:29;15.95;;;11.48;;
45252;SDS011;63171;50.520;30.486;2022-12-18T05:16:20;16.33;;;11.52;;
45252;SDS011;63171;50.520;30.486;2022-12-18T05:17:11;14.88;;;11.70;;
45252;SDS011;63171;50.520;30.486;2022-12-18T05:18:01;15.40;;;11.90;;